sensor_id;sensor_type;location;lat;lon;timestamp;temperature;humidity
52030;DHT22;38043;53.224;6.580;2022-08-24T00:01:20;20.50;99.90
52030;DHT22;38043;53.224;6.580;2022-08-24T00:03:47;20.50;99.90
52030;DHT22;38043;53.224;6.580;2022-08-24T00:06:15;20.40;99.90
52030;DHT22;38043;53.224;6.580;2022-08-24T00:08:44;20.40;99.90
52030;DHT22;38043;53.224;6.580;2022-08-24T00:11:11;20.30;99.90
52030;DHT22;38043;53.224;6.580;2022-08-24T00:13:36;20.30;99.90
52030;DHT22;38043;53.224;6.580;2022-08-24T00:16:04;20.30;99.90
52030;DHT22;38043;53.224;6.580;2022-08-24T00:18:30;20.30;99.90
52030;DHT22;38043;53.224;6.580;2022-08-24T00:20:57;20.30;99.90
52030;DHT22;38043;53.224;6.580;2022-08-24T00:23:23;20.20;99.90
52030;DHT22;38043;53.224;6.580;2022-08-24T00:25:49;20.20;99.90
52030;DHT22;38043;53.224;6.580;2022-08-24T00:28:16;20.20;99.90
52030;DHT22;38043;53.224;6.580;2022-08-24T00:30:45;20.10;99.90
52030;DHT22;38043;53.224;6.580;2022-08-24T00:33:10;20.20;99.90
52030;DHT22;38043;53.224;6.580;2022-08-24T00:35:36;20.30;99.90
52030;DHT22;38043;53.224;6.580;2022-08-24T00:38:02;20.30;99.90
52030;DHT22;38043;53.224;6.580;2022-08-24T00:40:31;20.30;99.90
52030;DHT22;38043;53.224;6.580;2022-08-24T00:43:01;20.20;99.90
52030;DHT22;38043;53.224;6.580;2022-08-24T00:45:34;20.20;99.90
52030;DHT22;38043;53.224;6.580;2022-08-24T00:48:05;20.20;99.90
52030;DHT22;38043;53.224;6.580;2022-08-24T00:50:49;20.10;99.90
52030;DHT22;38043;53.224;6.580;2022-08-24T00:53:32;20.10;99.90
52030;DHT22;38043;53.224;6.580;2022-08-24T00:56:02;20.00;99.90
52030;DHT22;38043;53.224;6.580;2022-08-24T00:58:34;20.00;99.90
52030;DHT22;38043;53.224;6.580;2022-08-24T01:01:02;20.00;99.90
52030;DHT22;38043;53.224;6.580;2022-08-24T01:03:31;20.00;99.90
52030;DHT22;38043;53.224;6.580;2022-08-24T01:05:57;19.90;99.90
52030;DHT22;38043;53.224;6.580;2022-08-24T01:08:24;19.90;99.90
52030;DHT22;38043;53.224;6.580;2022-08-24T01:10:54;19.90;99.90
52030;DHT22;38043;53.224;6.580;2022-08-24T01:13:22;19.50;99.90
52030;DHT22;38043;53.224;6.580;2022-08-24T01:15:51;19.80;99.90
52030;DHT22;38043;53.224;6.580;2022-08-24T01:18:20;19.80;99.90
52030;DHT22;38043;53.224;6.580;2022-08-24T01:26:18;19.70;99.90
52030;DHT22;38043;53.224;6.580;2022-08-24T01:28:47;19.70;99.90
52030;DHT22;38043;53.224;6.580;2022-08-24T01:31:13;19.70;99.90
52030;DHT22;38043;53.224;6.580;2022-08-24T01:33:40;19.70;99.90
52030;DHT22;38043;53.224;6.580;2022-08-24T01:36:30;19.70;99.90
52030;DHT22;38043;53.224;6.580;2022-08-24T01:38:59;19.70;99.90
52030;DHT22;38043;53.224;6.580;2022-08-24T01:41:29;19.60;99.90
52030;DHT22;38043;53.224;6.580;2022-08-24T01:43:56;19.60;99.90
52030;DHT22;38043;53.224;6.580;2022-08-24T01:46:22;19.60;99.90
52030;DHT22;38043;53.224;6.580;2022-08-24T01:48:48;19.60;99.90
52030;DHT22;38043;53.224;6.580;2022-08-24T01:51:14;19.60;99.90
52030;DHT22;38043;53.224;6.580;2022-08-24T01:53:40;19.50;99.90
52030;DHT22;38043;53.224;6.580;2022-08-24T01:56:05;19.50;99.90
52030;DHT22;38043;53.224;6.580;2022-08-24T01:58:31;19.50;99.90
52030;DHT22;38043;53.224;6.580;2022-08-24T02:00:57;19.40;99.90
52030;DHT22;38043;53.224;6.580;2022-08-24T02:03:26;19.50;99.90
52030;DHT22;38043;53.224;6.580;2022-08-24T02:05:52;19.50;99.90
52030;DHT22;38043;53.224;6.580;2022-08-24T02:08:18;19.40;99.90
52030;DHT22;38043;53.224;6.580;2022-08-24T02:10:43;19.40;99.90
52030;DHT22;38043;53.224;6.580;2022-08-24T02:13:09;19.40;99.90
52030;DHT22;38043;53.224;6.580;2022-08-24T02:15:37;19.30;99.90
52030;DHT22;38043;53.224;6.580;2022-08-24T02:18:05;19.30;99.90
52030;DHT22;38043;53.224;6.580;2022-08-24T02:20:32;19.30;99.90
52030;DHT22;38043;53.224;6.580;2022-08-24T02:22:58;19.30;99.90
52030;DHT22;38043;53.224;6.580;2022-08-24T02:25:24;19.30;99.90
52030;DHT22;38043;53.224;6.580;2022-08-24T02:27:50;19.20;99.90
52030;DHT22;38043;53.224;6.580;2022-08-24T02:30:17;19.20;99.90
52030;DHT22;38043;53.224;6.580;2022-08-24T02:32:43;19.30;99.90
52030;DHT22;38043;53.224;6.580;2022-08-24T02:35:09;19.20;99.90
52030;DHT22;38043;53.224;6.580;2022-08-24T02:37:35;19.20;99.90
52030;DHT22;38043;53.224;6.580;2022-08-24T02:40:02;19.20;99.90
52030;DHT22;38043;53.224;6.580;2022-08-24T02:42:29;19.20;99.90
52030;DHT22;38043;53.224;6.580;2022-08-24T02:44:54;19.10;99.90
52030;DHT22;38043;53.224;6.580;2022-08-24T02:47:20;19.10;99.90
52030;DHT22;38043;53.224;6.580;2022-08-24T02:49:46;19.10;99.90
52030;DHT22;38043;53.224;6.580;2022-08-24T02:52:16;19.10;99.90
52030;DHT22;38043;53.224;6.580;2022-08-24T02:54:42;19.00;99.90
52030;DHT22;38043;53.224;6.580;2022-08-24T02:57:10;19.00;99.90
52030;DHT22;38043;53.224;6.580;2022-08-24T02:59:36;19.00;99.90
52030;DHT22;38043;53.224;6.580;2022-08-24T03:02:02;19.00;99.90
52030;DHT22;38043;53.224;6.580;2022-08-24T03:04:28;19.00;99.90
52030;DHT22;38043;53.224;6.580;2022-08-24T03:06:54;19.00;99.90
52030;DHT22;38043;53.224;6.580;2022-08-24T03:09:20;18.90;99.90
52030;DHT22;38043;53.224;6.580;2022-08-24T03:11:45;18.90;99.90
52030;DHT22;38043;53.224;6.580;2022-08-24T03:14:11;18.90;99.90
52030;DHT22;38043;53.224;6.580;2022-08-24T03:16:37;18.90;99.90
52030;DHT22;38043;53.224;6.580;2022-08-24T03:19:05;18.90;99.90
52030;DHT22;38043;53.224;6.580;2022-08-24T03:21:30;18.80;99.90
52030;DHT22;38043;53.224;6.580;2022-08-24T03:23:58;18.80;99.90
52030;DHT22;38043;53.224;6.580;2022-08-24T03:26:23;18.80;99.90
52030;DHT22;38043;53.224;6.580;2022-08-24T03:28:50;18.80;99.90
52030;DHT22;38043;53.224;6.580;2022-08-24T03:31:16;18.80;99.90
52030;DHT22;38043;53.224;6.580;2022-08-24T03:33:42;18.80;99.90
52030;DHT22;38043;53.224;6.580;2022-08-24T03:36:07;18.80;99.90
52030;DHT22;38043;53.224;6.580;2022-08-24T03:38:33;18.80;99.90
52030;DHT22;38043;53.224;6.580;2022-08-24T03:40:59;18.80;99.90
52030;DHT22;38043;53.224;6.580;2022-08-24T03:43:25;18.80;99.90
52030;DHT22;38043;53.224;6.580;2022-08-24T03:46:12;18.80;99.90
52030;DHT22;38043;53.224;6.580;2022-08-24T03:48:39;18.80;99.90
52030;DHT22;38043;53.224;6.580;2022-08-24T03:51:18;18.70;99.90
52030;DHT22;38043;53.224;6.580;2022-08-24T03:53:44;18.70;99.90
52030;DHT22;38043;53.224;6.580;2022-08-24T03:56:10;18.70;99.90
52030;DHT22;38043;53.224;6.580;2022-08-24T03:58:38;18.70;99.90
52030;DHT22;38043;53.224;6.580;2022-08-24T04:01:06;18.70;99.90
52030;DHT22;38043;53.224;6.580;2022-08-24T04:03:37;18.80;99.90
52030;DHT22;38043;53.224;6.580;2022-08-24T04:06:04;18.60;99.90
52030;DHT22;38043;53.224;6.580;2022-08-24T04:08:30;18.60;99.90
52030;DHT22;38043;53.224;6.580;2022-08-24T04:10:56;18.60;99.90
52030;DHT22;38043;53.224;6.580;2022-08-24T04:13:22;18.60;99.90
52030;DHT22;38043;53.224;6.580;2022-08-24T04:15:49;18.60;99.90
52030;DHT22;38043;53.224;6.580;2022-08-24T04:18:18;18.50;99.90
52030;DHT22;38043;53.224;6.580;2022-08-24T04:20:44;18.60;99.90
52030;DHT22;38043;53.224;6.580;2022-08-24T04:23:10;18.60;99.90
52030;DHT22;38043;53.224;6.580;2022-08-24T04:25:41;18.50;99.90
52030;DHT22;38043;53.224;6.580;2022-08-24T04:28:07;18.60;99.90
52030;DHT22;38043;53.224;6.580;2022-08-24T04:30:41;18.60;99.90
52030;DHT22;38043;53.224;6.580;2022-08-24T04:33:08;18.60;99.90
52030;DHT22;38043;53.224;6.580;2022-08-24T04:35:39;18.50;99.90
52030;DHT22;38043;53.224;6.580;2022-08-24T04:38:06;18.50;99.90
52030;DHT22;38043;53.224;6.580;2022-08-24T04:40:32;18.50;99.90
52030;DHT22;38043;53.224;6.580;2022-08-24T04:42:58;18.50;99.90
52030;DHT22;38043;53.224;6.580;2022-08-24T04:45:25;18.50;99.90
52030;DHT22;38043;53.224;6.580;2022-08-24T04:47:51;18.50;99.90
52030;DHT22;38043;53.224;6.580;2022-08-24T04:50:17;18.50;99.90
52030;DHT22;38043;53.224;6.580;2022-08-24T04:52:43;18.50;99.90
52030;DHT22;38043;53.224;6.580;2022-08-24T04:55:09;18.50;99.90
52030;DHT22;38043;53.224;6.580;2022-08-24T04:57:34;18.50;99.90
52030;DHT22;38043;53.224;6.580;2022-08-24T05:00:00;18.50;99.90
52030;DHT22;38043;53.224;6.580;2022-08-24T05:02:28;18.50;99.90
52030;DHT22;38043;53.224;6.580;2022-08-24T05:04:56;18.50;99.90
52030;DHT22;38043;53.224;6.580;2022-08-24T05:07:22;18.50;99.90
52030;DHT22;38043;53.224;6.580;2022-08-24T05:09:48;18.60;99.90
52030;DHT22;38043;53.224;6.580;2022-08-24T05:12:14;18.60;99.90
52030;DHT22;38043;53.224;6.580;2022-08-24T05:14:40;18.60;99.90
52030;DHT22;38043;53.224;6.580;2022-08-24T05:17:08;18.60;99.90
52030;DHT22;38043;53.224;6.580;2022-08-24T05:19:34;18.60;99.90
52030;DHT22;38043;53.224;6.580;2022-08-24T05:22:00;18.60;99.90
52030;DHT22;38043;53.224;6.580;2022-08-24T05:24:26;18.70;99.90
52030;DHT22;38043;53.224;6.580;2022-08-24T05:26:52;18.70;99.90
52030;DHT22;38043;53.224;6.580;2022-08-24T05:29:18;18.70;99.90
52030;DHT22;38043;53.224;6.580;2022-08-24T05:31:45;18.70;99.90
52030;DHT22;38043;53.224;6.580;2022-08-24T05:34:11;18.80;99.90
52030;DHT22;38043;53.224;6.580;2022-08-24T05:36:39;18.80;99.90
52030;DHT22;38043;53.224;6.580;2022-08-24T05:39:09;18.80;99.90
52030;DHT22;38043;53.224;6.580;2022-08-24T05:41:35;18.80;99.90
52030;DHT22;38043;53.224;6.580;2022-08-24T05:44:01;18.90;99.90
52030;DHT22;38043;53.224;6.580;2022-08-24T05:46:29;18.90;99.90
52030;DHT22;38043;53.224;6.580;2022-08-24T05:48:57;19.00;99.90
52030;DHT22;38043;53.224;6.580;2022-08-24T05:51:23;19.00;99.90
52030;DHT22;38043;53.224;6.580;2022-08-24T05:53:49;19.10;99.90
52030;DHT22;38043;53.224;6.580;2022-08-24T05:56:16;19.10;99.90
52030;DHT22;38043;53.224;6.580;2022-08-24T05:58:43;19.20;99.90
52030;DHT22;38043;53.224;6.580;2022-08-24T06:01:18;19.20;99.90
52030;DHT22;38043;53.224;6.580;2022-08-24T06:03:46;19.30;99.90
52030;DHT22;38043;53.224;6.580;2022-08-24T06:06:13;19.40;99.90
52030;DHT22;38043;53.224;6.580;2022-08-24T06:08:41;19.50;99.90
52030;DHT22;38043;53.224;6.580;2022-08-24T06:11:08;19.50;99.90
52030;DHT22;38043;53.224;6.580;2022-08-24T06:13:34;19.70;99.90
52030;DHT22;38043;53.224;6.580;2022-08-24T06:16:09;19.80;99.90
52030;DHT22;38043;53.224;6.580;2022-08-24T06:18:36;20.00;99.90
52030;DHT22;38043;53.224;6.580;2022-08-24T06:21:14;20.40;99.90
52030;DHT22;38043;53.224;6.580;2022-08-24T06:23:41;20.80;99.90
52030;DHT22;38043;53.224;6.580;2022-08-24T06:26:09;21.40;99.90
52030;DHT22;38043;53.224;6.580;2022-08-24T06:28:54;22.00;99.90
52030;DHT22;38043;53.224;6.580;2022-08-24T06:31:20;22.50;99.90
52030;DHT22;38043;53.224;6.580;2022-08-24T06:33:46;22.90;99.90
52030;DHT22;38043;53.224;6.580;2022-08-24T06:36:15;23.30;99.90
52030;DHT22;38043;53.224;6.580;2022-08-24T06:38:41;23.60;99.90
52030;DHT22;38043;53.224;6.580;2022-08-24T06:41:08;24.40;99.90
52030;DHT22;38043;53.224;6.580;2022-08-24T06:43:35;24.10;99.90
52030;DHT22;38043;53.224;6.580;2022-08-24T06:46:02;24.00;99.90
52030;DHT22;38043;53.224;6.580;2022-08-24T06:48:28;23.90;99.90
52030;DHT22;38043;53.224;6.580;2022-08-24T06:50:56;23.80;99.90
52030;DHT22;38043;53.224;6.580;2022-08-24T06:53:24;24.00;99.90
52030;DHT22;38043;53.224;6.580;2022-08-24T06:55:55;24.30;99.90
52030;DHT22;38043;53.224;6.580;2022-08-24T06:58:24;24.60;99.90
52030;DHT22;38043;53.224;6.580;2022-08-24T07:00:53;24.80;99.90
52030;DHT22;38043;53.224;6.580;2022-08-24T07:03:21;25.00;99.90
52030;DHT22;38043;53.224;6.580;2022-08-24T07:05:55;25.10;99.90
52030;DHT22;38043;53.224;6.580;2022-08-24T07:08:22;25.10;99.90
52030;DHT22;38043;53.224;6.580;2022-08-24T07:10:48;25.00;99.90
52030;DHT22;38043;53.224;6.580;2022-08-24T07:13:14;24.80;99.90
52030;DHT22;38043;53.224;6.580;2022-08-24T07:15:41;24.70;99.90
52030;DHT22;38043;53.224;6.580;2022-08-24T07:18:07;24.70;99.90
52030;DHT22;38043;53.224;6.580;2022-08-24T07:20:36;24.60;99.90
52030;DHT22;38043;53.224;6.580;2022-08-24T07:23:05;24.50;99.90
52030;DHT22;38043;53.224;6.580;2022-08-24T07:25:33;24.50;99.90
52030;DHT22;38043;53.224;6.580;2022-08-24T07:27:59;24.60;99.90
52030;DHT22;38043;53.224;6.580;2022-08-24T07:30:26;24.60;99.90
52030;DHT22;38043;53.224;6.580;2022-08-24T07:32:52;24.70;99.90
52030;DHT22;38043;53.224;6.580;2022-08-24T07:35:18;24.70;99.90
52030;DHT22;38043;53.224;6.580;2022-08-24T07:37:44;24.60;99.90
52030;DHT22;38043;53.224;6.580;2022-08-24T07:40:10;24.50;99.90
52030;DHT22;38043;53.224;6.580;2022-08-24T07:42:36;24.50;99.90
52030;DHT22;38043;53.224;6.580;2022-08-24T07:45:07;24.50;99.90
52030;DHT22;38043;53.224;6.580;2022-08-24T07:47:33;24.60;99.90
52030;DHT22;38043;53.224;6.580;2022-08-24T07:49:59;24.70;99.90
52030;DHT22;38043;53.224;6.580;2022-08-24T07:52:25;24.80;99.90
52030;DHT22;38043;53.224;6.580;2022-08-24T07:54:50;25.00;99.90
52030;DHT22;38043;53.224;6.580;2022-08-24T07:57:16;25.10;99.90
52030;DHT22;38043;53.224;6.580;2022-08-24T07:59:42;25.20;99.90
52030;DHT22;38043;53.224;6.580;2022-08-24T08:02:08;25.40;99.90
52030;DHT22;38043;53.224;6.580;2022-08-24T08:04:35;25.50;99.90
52030;DHT22;38043;53.224;6.580;2022-08-24T08:07:02;25.60;99.90
52030;DHT22;38043;53.224;6.580;2022-08-24T08:09:28;25.70;99.90
52030;DHT22;38043;53.224;6.580;2022-08-24T08:11:54;25.80;99.90
52030;DHT22;38043;53.224;6.580;2022-08-24T08:14:20;25.90;99.90
52030;DHT22;38043;53.224;6.580;2022-08-24T08:16:46;26.00;99.90
52030;DHT22;38043;53.224;6.580;2022-08-24T08:19:11;26.20;99.90
52030;DHT22;38043;53.224;6.580;2022-08-24T08:21:42;26.20;99.90
52030;DHT22;38043;53.224;6.580;2022-08-24T08:24:27;26.30;99.90
52030;DHT22;38043;53.224;6.580;2022-08-24T08:26:52;26.50;99.90
52030;DHT22;38043;53.224;6.580;2022-08-24T08:29:19;26.60;99.90
52030;DHT22;38043;53.224;6.580;2022-08-24T08:31:45;26.70;99.90
52030;DHT22;38043;53.224;6.580;2022-08-24T08:34:11;26.70;99.90
52030;DHT22;38043;53.224;6.580;2022-08-24T08:36:38;26.80;99.90
52030;DHT22;38043;53.224;6.580;2022-08-24T08:39:06;26.90;99.90
52030;DHT22;38043;53.224;6.580;2022-08-24T08:55:48;27.60;99.30
52030;DHT22;38043;53.224;6.580;2022-08-24T08:58:43;27.80;98.70
52030;DHT22;38043;53.224;6.580;2022-08-24T09:31:13;29.10;96.10
52030;DHT22;38043;53.224;6.580;2022-08-24T09:45:01;29.40;95.00
52030;DHT22;38043;53.224;6.580;2022-08-24T10:07:43;30.00;93.00
52030;DHT22;38043;53.224;6.580;2022-08-24T10:13:17;30.40;92.40
52030;DHT22;38043;53.224;6.580;2022-08-24T10:16:08;30.50;91.90
52030;DHT22;38043;53.224;6.580;2022-08-24T10:24:04;30.90;91.20
52030;DHT22;38043;53.224;6.580;2022-08-24T10:34:48;31.60;89.00
52030;DHT22;38043;53.224;6.580;2022-08-24T10:37:31;31.60;88.60
52030;DHT22;38043;53.224;6.580;2022-08-24T10:40:28;31.80;88.50
52030;DHT22;38043;53.224;6.580;2022-08-24T10:43:10;32.20;86.20
52030;DHT22;38043;53.224;6.580;2022-08-24T10:46:23;32.30;87.50
52030;DHT22;38043;53.224;6.580;2022-08-24T10:49:12;32.70;85.90
52030;DHT22;38043;53.224;6.580;2022-08-24T10:54:12;33.30;82.90
52030;DHT22;38043;53.224;6.580;2022-08-24T11:00:05;33.40;83.20
52030;DHT22;38043;53.224;6.580;2022-08-24T11:02:35;33.70;80.30
52030;DHT22;38043;53.224;6.580;2022-08-24T11:07:35;33.90;77.80
52030;DHT22;38043;53.224;6.580;2022-08-24T11:10:10;33.80;79.00
52030;DHT22;38043;53.224;6.580;2022-08-24T11:12:48;33.70;78.30
52030;DHT22;38043;53.224;6.580;2022-08-24T11:17:54;34.00;77.60
52030;DHT22;38043;53.224;6.580;2022-08-24T11:20:33;34.30;76.00
52030;DHT22;38043;53.224;6.580;2022-08-24T11:23:18;34.10;76.10
52030;DHT22;38043;53.224;6.580;2022-08-24T11:26:09;34.30;74.90
52030;DHT22;38043;53.224;6.580;2022-08-24T11:28:52;34.10;74.60
52030;DHT22;38043;53.224;6.580;2022-08-24T11:34:04;33.60;74.20
52030;DHT22;38043;53.224;6.580;2022-08-24T11:36:34;33.20;75.40
52030;DHT22;38043;53.224;6.580;2022-08-24T11:44:36;33.10;76.00
52030;DHT22;38043;53.224;6.580;2022-08-24T11:48:13;33.50;75.80
52030;DHT22;38043;53.224;6.580;2022-08-24T11:53:06;33.70;73.00
52030;DHT22;38043;53.224;6.580;2022-08-24T11:56:03;33.30;73.50
52030;DHT22;38043;53.224;6.580;2022-08-24T11:58:55;33.00;73.30
52030;DHT22;38043;53.224;6.580;2022-08-24T12:01:39;32.50;74.90
52030;DHT22;38043;53.224;6.580;2022-08-24T12:04:21;32.30;75.10
52030;DHT22;38043;53.224;6.580;2022-08-24T12:10:09;31.80;75.40
52030;DHT22;38043;53.224;6.580;2022-08-24T12:21:40;31.20;76.10
52030;DHT22;38043;53.224;6.580;2022-08-24T12:24:22;30.90;78.10
52030;DHT22;38043;53.224;6.580;2022-08-24T12:26:55;30.90;78.40
52030;DHT22;38043;53.224;6.580;2022-08-24T12:29:34;31.20;79.50
52030;DHT22;38043;53.224;6.580;2022-08-24T12:32:25;31.40;78.50
52030;DHT22;38043;53.224;6.580;2022-08-24T12:37:32;32.00;77.80
52030;DHT22;38043;53.224;6.580;2022-08-24T12:42:45;32.60;73.50
52030;DHT22;38043;53.224;6.580;2022-08-24T12:45:14;32.40;75.00
52030;DHT22;38043;53.224;6.580;2022-08-24T12:48:04;32.10;76.20
52030;DHT22;38043;53.224;6.580;2022-08-24T12:50:42;31.90;76.30
52030;DHT22;38043;53.224;6.580;2022-08-24T12:53:37;32.10;78.10
52030;DHT22;38043;53.224;6.580;2022-08-24T12:58:59;32.30;74.90
52030;DHT22;38043;53.224;6.580;2022-08-24T13:01:33;32.20;75.10
52030;DHT22;38043;53.224;6.580;2022-08-24T13:07:08;31.80;74.20
52030;DHT22;38043;53.224;6.580;2022-08-24T13:09:41;31.50;75.60
52030;DHT22;38043;53.224;6.580;2022-08-24T13:31:04;31.30;76.20
52030;DHT22;38043;53.224;6.580;2022-08-24T13:36:53;31.20;77.30
52030;DHT22;38043;53.224;6.580;2022-08-24T13:39:40;31.20;76.50
52030;DHT22;38043;53.224;6.580;2022-08-24T13:47:58;31.50;77.20
52030;DHT22;38043;53.224;6.580;2022-08-24T13:50:47;31.80;77.20
52030;DHT22;38043;53.224;6.580;2022-08-24T13:56:18;31.70;76.70
52030;DHT22;38043;53.224;6.580;2022-08-24T14:06:57;32.10;76.00
52030;DHT22;38043;53.224;6.580;2022-08-24T14:23:32;32.00;74.00
52030;DHT22;38043;53.224;6.580;2022-08-24T14:29:34;31.00;77.30
52030;DHT22;38043;53.224;6.580;2022-08-24T14:34:34;30.50;79.50
52030;DHT22;38043;53.224;6.580;2022-08-24T14:37:46;30.30;79.60
52030;DHT22;38043;53.224;6.580;2022-08-24T14:40:26;30.20;80.20
52030;DHT22;38043;53.224;6.580;2022-08-24T14:42:56;30.20;79.60
52030;DHT22;38043;53.224;6.580;2022-08-24T14:51:13;29.90;81.20
52030;DHT22;38043;53.224;6.580;2022-08-24T14:59:32;29.50;83.80
52030;DHT22;38043;53.224;6.580;2022-08-24T15:07:34;29.20;85.40
52030;DHT22;38043;53.224;6.580;2022-08-24T15:10:09;29.10;85.70
52030;DHT22;38043;53.224;6.580;2022-08-24T15:12:40;29.10;85.30
52030;DHT22;38043;53.224;6.580;2022-08-24T15:20:41;28.90;86.10
52030;DHT22;38043;53.224;6.580;2022-08-24T15:26:06;28.80;87.00
52030;DHT22;38043;53.224;6.580;2022-08-24T15:28:33;28.90;87.00
52030;DHT22;38043;53.224;6.580;2022-08-24T15:31:05;29.00;86.90
52030;DHT22;38043;53.224;6.580;2022-08-24T15:33:34;28.90;86.50
52030;DHT22;38043;53.224;6.580;2022-08-24T15:36:16;28.90;86.80
52030;DHT22;38043;53.224;6.580;2022-08-24T15:38:44;28.80;86.80
52030;DHT22;38043;53.224;6.580;2022-08-24T15:41:18;28.80;87.30
52030;DHT22;38043;53.224;6.580;2022-08-24T15:47:16;28.90;88.10
52030;DHT22;38043;53.224;6.580;2022-08-24T15:49:24;28.80;88.40
52030;DHT22;38043;53.224;6.580;2022-08-24T15:52:09;28.70;89.00
52030;DHT22;38043;53.224;6.580;2022-08-24T15:55:15;28.60;89.30
52030;DHT22;38043;53.224;6.580;2022-08-24T15:57:51;28.70;88.80
52030;DHT22;38043;53.224;6.580;2022-08-24T16:00:21;28.60;89.40
52030;DHT22;38043;53.224;6.580;2022-08-24T16:05:52;28.60;89.60
52030;DHT22;38043;53.224;6.580;2022-08-24T16:08:19;28.50;89.80
52030;DHT22;38043;53.224;6.580;2022-08-24T16:10:49;28.40;90.00
52030;DHT22;38043;53.224;6.580;2022-08-24T16:18:25;28.40;90.30
52030;DHT22;38043;53.224;6.580;2022-08-24T16:20:52;28.50;90.50
52030;DHT22;38043;53.224;6.580;2022-08-24T16:23:29;28.40;90.50
52030;DHT22;38043;53.224;6.580;2022-08-24T16:26:19;28.40;90.60
52030;DHT22;38043;53.224;6.580;2022-08-24T16:28:46;28.30;90.70
52030;DHT22;38043;53.224;6.580;2022-08-24T16:31:42;28.20;90.80
52030;DHT22;38043;53.224;6.580;2022-08-24T16:34:28;28.20;90.90
52030;DHT22;38043;53.224;6.580;2022-08-24T16:36:55;28.00;91.30
52030;DHT22;38043;53.224;6.580;2022-08-24T16:39:21;28.00;91.40
52030;DHT22;38043;53.224;6.580;2022-08-24T16:41:47;28.00;91.40
52030;DHT22;38043;53.224;6.580;2022-08-24T16:44:14;28.00;91.60
52030;DHT22;38043;53.224;6.580;2022-08-24T16:46:40;27.90;92.00
52030;DHT22;38043;53.224;6.580;2022-08-24T16:49:06;27.80;92.00
52030;DHT22;38043;53.224;6.580;2022-08-24T16:51:32;27.60;92.20
52030;DHT22;38043;53.224;6.580;2022-08-24T16:53:58;27.50;92.40
52030;DHT22;38043;53.224;6.580;2022-08-24T16:56:25;27.40;92.60
52030;DHT22;38043;53.224;6.580;2022-08-24T16:58:51;27.40;92.80
52030;DHT22;38043;53.224;6.580;2022-08-24T17:01:17;27.30;92.90
52030;DHT22;38043;53.224;6.580;2022-08-24T17:03:44;27.30;93.10
52030;DHT22;38043;53.224;6.580;2022-08-24T17:06:10;27.30;93.30
52030;DHT22;38043;53.224;6.580;2022-08-24T17:08:37;27.30;93.30
52030;DHT22;38043;53.224;6.580;2022-08-24T17:11:03;27.20;93.20
52030;DHT22;38043;53.224;6.580;2022-08-24T17:13:30;27.20;93.20
52030;DHT22;38043;53.224;6.580;2022-08-24T17:15:56;27.10;93.30
52030;DHT22;38043;53.224;6.580;2022-08-24T17:18:23;27.00;93.40
52030;DHT22;38043;53.224;6.580;2022-08-24T17:20:51;27.00;93.30
52030;DHT22;38043;53.224;6.580;2022-08-24T17:23:16;26.90;93.20
52030;DHT22;38043;53.224;6.580;2022-08-24T17:25:42;26.80;93.20
52030;DHT22;38043;53.224;6.580;2022-08-24T17:28:15;26.80;93.20
52030;DHT22;38043;53.224;6.580;2022-08-24T17:30:41;26.80;93.20
52030;DHT22;38043;53.224;6.580;2022-08-24T17:33:07;26.70;93.20
52030;DHT22;38043;53.224;6.580;2022-08-24T17:35:33;26.60;93.40
52030;DHT22;38043;53.224;6.580;2022-08-24T17:37:59;26.50;93.60
52030;DHT22;38043;53.224;6.580;2022-08-24T17:40:25;26.50;93.60
52030;DHT22;38043;53.224;6.580;2022-08-24T17:42:54;26.60;93.70
52030;DHT22;38043;53.224;6.580;2022-08-24T17:45:20;26.50;93.70
52030;DHT22;38043;53.224;6.580;2022-08-24T17:47:47;26.60;93.60
52030;DHT22;38043;53.224;6.580;2022-08-24T17:50:14;26.50;93.70
52030;DHT22;38043;53.224;6.580;2022-08-24T17:52:41;26.50;93.70
52030;DHT22;38043;53.224;6.580;2022-08-24T17:55:09;26.50;94.00
52030;DHT22;38043;53.224;6.580;2022-08-24T17:57:36;26.40;94.40
52030;DHT22;38043;53.224;6.580;2022-08-24T18:00:04;26.30;94.30
52030;DHT22;38043;53.224;6.580;2022-08-24T18:02:33;26.30;94.50
52030;DHT22;38043;53.224;6.580;2022-08-24T18:04:59;26.20;94.60
52030;DHT22;38043;53.224;6.580;2022-08-24T18:07:25;26.20;94.90
52030;DHT22;38043;53.224;6.580;2022-08-24T18:09:55;26.10;94.80
52030;DHT22;38043;53.224;6.580;2022-08-24T18:12:24;26.10;95.00
52030;DHT22;38043;53.224;6.580;2022-08-24T18:14:50;26.10;95.10
52030;DHT22;38043;53.224;6.580;2022-08-24T18:17:20;26.00;95.10
52030;DHT22;38043;53.224;6.580;2022-08-24T18:19:47;26.00;95.20
52030;DHT22;38043;53.224;6.580;2022-08-24T18:22:13;25.90;95.50
52030;DHT22;38043;53.224;6.580;2022-08-24T18:24:39;25.90;95.50
52030;DHT22;38043;53.224;6.580;2022-08-24T18:27:10;25.70;95.60
52030;DHT22;38043;53.224;6.580;2022-08-24T18:29:40;25.70;95.80
52030;DHT22;38043;53.224;6.580;2022-08-24T18:32:07;25.60;96.00
52030;DHT22;38043;53.224;6.580;2022-08-24T18:34:33;25.60;96.10
52030;DHT22;38043;53.224;6.580;2022-08-24T18:37:00;25.50;96.30
52030;DHT22;38043;53.224;6.580;2022-08-24T18:39:26;25.50;96.50
52030;DHT22;38043;53.224;6.580;2022-08-24T18:41:54;25.40;96.70
52030;DHT22;38043;53.224;6.580;2022-08-24T18:44:25;25.30;96.80
52030;DHT22;38043;53.224;6.580;2022-08-24T18:46:50;25.20;97.00
52030;DHT22;38043;53.224;6.580;2022-08-24T18:49:18;25.10;97.20
52030;DHT22;38043;53.224;6.580;2022-08-24T18:51:45;25.10;97.50
52030;DHT22;38043;53.224;6.580;2022-08-24T18:54:22;25.10;97.80
52030;DHT22;38043;53.224;6.580;2022-08-24T18:56:49;25.00;98.10
52030;DHT22;38043;53.224;6.580;2022-08-24T18:59:19;24.90;98.40
52030;DHT22;38043;53.224;6.580;2022-08-24T19:01:49;24.80;98.80
52030;DHT22;38043;53.224;6.580;2022-08-24T19:04:43;24.80;99.20
52030;DHT22;38043;53.224;6.580;2022-08-24T19:07:12;24.80;99.30
52030;DHT22;38043;53.224;6.580;2022-08-24T19:09:38;24.70;99.80
52030;DHT22;38043;53.224;6.580;2022-08-24T19:12:06;24.60;99.90
52030;DHT22;38043;53.224;6.580;2022-08-24T19:14:33;24.60;99.90
52030;DHT22;38043;53.224;6.580;2022-08-24T19:17:00;24.60;99.90
52030;DHT22;38043;53.224;6.580;2022-08-24T19:19:25;24.50;99.90
52030;DHT22;38043;53.224;6.580;2022-08-24T19:21:52;24.40;99.90
52030;DHT22;38043;53.224;6.580;2022-08-24T19:24:21;24.40;99.90
52030;DHT22;38043;53.224;6.580;2022-08-24T19:26:48;24.40;99.90
52030;DHT22;38043;53.224;6.580;2022-08-24T19:29:13;24.30;99.90
52030;DHT22;38043;53.224;6.580;2022-08-24T19:31:40;24.30;99.90
52030;DHT22;38043;53.224;6.580;2022-08-24T19:34:06;24.30;99.90
52030;DHT22;38043;53.224;6.580;2022-08-24T19:36:32;24.30;99.90
52030;DHT22;38043;53.224;6.580;2022-08-24T19:38:58;24.10;99.90
52030;DHT22;38043;53.224;6.580;2022-08-24T19:41:24;24.10;99.90
52030;DHT22;38043;53.224;6.580;2022-08-24T19:43:52;24.00;99.90
52030;DHT22;38043;53.224;6.580;2022-08-24T19:46:36;24.00;99.90